Time;durP1;ratioP1;P1;durP2;ratioP2;P2;SDS_P1;SDS_P2;PMS_P1;PMS_P2;Temp;Humidity;BMP_temperature;BMP_pressure;BME280_temperature;BME280_humidity;BME280_pressure;Samples;Min_cycle;Max_cycle;Signal;HPM_P1;HPM_P2
2022/06/22 00:01:06;;;;;;;9.95;5.65;;;;;;;10.89;100.00;101313.69;5216516;28;20036;-72
2022/06/22 00:03:36;;;;;;;16.20;5.43;;;;;;;10.88;100.00;101305.78;5214164;28;20167;-71
2022/06/22 00:06:22;;;;;;;10.88;6.00;;;;;;;10.86;100.00;101307.78;5217807;28;20029;-69
2022/06/22 00:08:52;;;;;;;;;;;;;;;10.85;100.00;101303.41;5216875;28;20079;-69
2022/06/22 00:11:25;;;;;;;10.82;6.32;;;;;;;10.81;100.00;101294.00;5206696;28;19909;-71
2022/06/22 00:13:59;;;;;;;9.50;5.82;;;;;;;10.77;100.00;101282.72;5208292;28;20021;-70
2022/06/22 00:16:34;;;;;;;13.63;6.78;;;;;;;10.73;100.00;101289.41;5212203;28;20032;-70
2022/06/22 00:19:27;;;;;;;12.93;6.47;;;;;;;10.66;100.00;101298.25;5212712;28;20028;-71
2022/06/22 00:21:58;;;;;;;16.70;7.38;;;;;;;10.54;100.00;101289.56;5211741;28;20036;-72
2022/06/22 00:24:35;;;;;;;13.30;7.13;;;;;;;10.50;100.00;101283.69;5205424;28;20029;-69
2022/06/22 00:27:15;;;;;;;12.70;6.70;;;;;;;10.47;100.00;101297.41;5207360;28;20024;-69
2022/06/22 00:29:58;;;;;;;14.77;6.00;;;;;;;10.42;100.00;101305.06;5214345;28;20479;-69
2022/06/22 00:32:29;;;;;;;15.15;6.15;;;;;;;10.29;100.00;101324.25;5221486;28;20120;-70
2022/06/22 00:35:36;;;;;;;12.15;6.40;;;;;;;10.24;100.00;101320.31;5217292;28;20526;-69
2022/06/22 00:38:12;;;;;;;16.40;6.95;;;;;;;10.25;100.00;101322.88;5206161;28;20116;-69
2022/06/22 00:40:43;;;;;;;11.23;6.30;;;;;;;10.27;100.00;101306.63;5214892;28;20021;-70
2022/06/22 00:43:16;;;;;;;13.43;6.97;;;;;;;10.23;100.00;101291.78;5209174;28;20017;-70
2022/06/22 00:45:49;;;;;;;12.25;6.75;;;;;;;10.19;100.00;101288.59;5207469;28;20057;-70
2022/06/22 00:48:22;;;;;;;11.73;6.40;;;;;;;10.18;100.00;101278.00;5211029;28;20028;-70
2022/06/22 00:50:59;;;;;;;11.57;6.57;;;;;;;10.21;100.00;101262.44;5207328;28;20040;-71
2022/06/22 00:53:51;;;;;;;18.08;6.95;;;;;;;10.32;100.00;101264.09;5210512;28;20066;-70
2022/06/22 00:56:43;;;;;;;17.08;7.25;;;;;;;10.38;100.00;101261.63;5210327;28;20040;-70
2022/06/22 00:59:33;;;;;;;11.18;6.50;;;;;;;10.44;100.00;101252.13;5219989;28;20117;-73
2022/06/22 01:02:21;;;;;;;11.43;6.78;;;;;;;10.51;100.00;101255.03;5217944;28;20107;-72
2022/06/22 01:05:01;;;;;;;14.23;7.20;;;;;;;10.68;100.00;101258.66;5220778;28;20021;-72
2022/06/22 01:07:54;;;;;;;14.82;7.15;;;;;;;10.77;100.00;101266.63;5220880;28;20092;-72
2022/06/22 01:10:32;;;;;;;14.13;7.15;;;;;;;10.83;100.00;101284.78;5217242;28;20021;-73
2022/06/22 01:13:13;;;;;;;14.65;7.28;;;;;;;10.98;100.00;101285.03;5208409;28;20021;-70
2022/06/22 01:16:04;;;;;;;14.32;7.28;;;;;;;11.12;100.00;101279.09;5208100;28;20033;-69
2022/06/22 01:18:42;;;;;;;13.32;7.75;;;;;;;11.21;100.00;101287.19;5221987;28;20056;-70
2022/06/22 01:21:28;;;;;;;12.20;6.93;;;;;;;11.26;100.00;101284.88;5227909;28;20032;-70
2022/06/22 01:24:04;;;;;;;16.70;8.13;;;;;;;11.26;100.00;101280.34;5227163;28;20071;-70
2022/06/22 01:26:49;;;;;;;23.90;8.30;;;;;;;11.25;100.00;101285.88;5227137;28;20108;-70
2022/06/22 01:29:23;;;;;;;19.77;7.97;;;;;;;11.23;100.00;101285.19;5227573;28;20104;-70
2022/06/22 01:31:57;;;;;;;14.65;7.80;;;;;;;11.22;100.00;101284.34;5226941;28;20025;-71
2022/06/22 01:34:34;;;;;;;13.67;8.17;;;;;;;11.19;100.00;101290.03;5224894;28;20094;-70
2022/06/22 01:37:11;;;;;;;15.30;8.23;;;;;;;11.14;100.00;101293.22;5208144;28;20267;-70
2022/06/22 01:39:43;;;;;;;17.48;8.45;;;;;;;11.09;100.00;101290.16;5212328;28;20053;-70
2022/06/22 01:42:38;;;;;;;14.63;8.38;;;;;;;11.05;100.00;101290.63;5227275;28;20517;-70
2022/06/22 01:45:18;;;;;;;16.77;7.93;;;;;;;11.02;100.00;101294.47;5208739;28;20379;-71
2022/06/22 01:47:55;;;;;;;22.63;8.55;;;;;;;11.02;100.00;101293.63;5220034;28;20492;-71
2022/06/22 01:50:37;;;;;;;15.93;8.48;;;;;;;11.00;100.00;101291.09;5217401;28;20098;-71
2022/06/22 01:53:17;;;;;;;18.25;8.55;;;;;;;11.02;100.00;101297.16;5210252;28;20104;-70
2022/06/22 01:55:56;;;;;;;15.88;8.20;;;;;;;11.01;100.00;101308.91;5210851;28;20394;-71
2022/06/22 01:58:34;;;;;;;15.68;7.82;;;;;;;10.95;100.00;101296.09;5208863;28;20391;-70
2022/06/22 02:01:34;;;;;;;18.75;8.80;;;;;;;10.88;100.00;101282.44;5222822;28;20055;-70
2022/06/22 02:04:30;;;;;;;15.30;9.02;;;;;;;10.81;100.00;101294.00;5222195;28;20051;-70
2022/06/22 02:10:33;;;;;;;15.30;8.35;;;;;;;10.60;100.00;101292.50;5220152;28;20033;-70
2022/06/22 02:13:30;;;;;;;17.85;8.40;;;;;;;10.52;100.00;101303.16;5213039;28;20029;-70
2022/06/22 02:16:15;;;;;;;21.92;9.73;;;;;;;10.46;100.00;101287.69;5215993;28;20420;-71
2022/06/22 02:18:50;;;;;;;13.80;8.25;;;;;;;10.39;100.00;101278.56;5215084;28;20097;-70
2022/06/22 02:21:42;;;;;;;16.15;8.57;;;;;;;10.33;100.00;101266.59;5220010;28;20032;-72
2022/06/22 02:24:46;;;;;;;23.45;10.32;;;;;;;10.28;100.00;101268.91;5219079;28;20085;-72
2022/06/22 02:27:20;;;;;;;24.98;10.27;;;;;;;10.35;100.00;101261.94;5220006;28;20061;-72
2022/06/22 02:29:55;;;;;;;18.25;9.93;;;;;;;10.40;100.00;101266.84;5212790;28;20335;-70
2022/06/22 02:32:33;;;;;;;19.70;10.15;;;;;;;10.45;100.00;101269.91;5218005;28;20029;-70
2022/06/22 02:35:05;;;;;;;20.30;10.13;;;;;;;10.47;100.00;101273.25;5219338;28;20498;-70
2022/06/22 02:37:50;;;;;;;22.75;10.23;;;;;;;10.46;100.00;101271.59;5219497;28;20078;-70
2022/06/22 02:40:26;;;;;;;24.00;10.05;;;;;;;10.44;100.00;101264.69;5218543;28;20029;-71
2022/06/22 02:45:46;;;;;;;19.75;9.52;;;;;;;10.41;100.00;101232.81;5210259;28;20057;-70
2022/06/22 02:48:37;;;;;;;24.83;10.15;;;;;;;10.43;100.00;101236.19;5217339;28;20074;-70
2022/06/22 02:51:16;;;;;;;22.98;9.82;;;;;;;10.47;100.00;101234.88;5210434;28;20030;-70
2022/06/22 02:53:48;;;;;;;20.83;10.15;;;;;;;10.45;100.00;101236.88;5214150;28;20459;-70
2022/06/22 02:56:25;;;;;;;20.38;10.63;;;;;;;10.44;100.00;101233.38;5214547;28;20119;-70
2022/06/22 02:58:56;;;;;;;22.25;11.50;;;;;;;10.45;100.00;101231.53;5219898;28;20388;-70
2022/06/22 03:01:31;;;;;;;21.75;11.70;;;;;;;10.48;100.00;101236.56;5219221;28;20102;-69
2022/06/22 03:04:06;;;;;;;;;;;;;;;10.49;100.00;101225.69;5216746;28;20434;-70
2022/06/22 03:06:43;;;;;;;25.55;11.55;;;;;;;10.51;100.00;101237.09;5213473;28;19916;-71
2022/06/22 03:09:16;;;;;;;24.40;11.65;;;;;;;10.52;100.00;101241.44;5214113;28;20364;-70
2022/06/22 03:11:50;;;;;;;22.38;12.48;;;;;;;10.54;100.00;101235.91;5209626;28;20025;-70
2022/06/22 03:14:36;;;;;;;22.95;12.70;;;;;;;10.55;100.00;101243.00;5208213;28;20052;-70
2022/06/22 03:17:13;;;;;;;26.42;13.45;;;;;;;10.55;100.00;101243.84;5219688;28;20411;-70
2022/06/22 03:19:47;;;;;;;23.42;11.68;;;;;;;10.57;100.00;101252.56;5220471;28;20017;-70
2022/06/22 03:22:24;;;;;;;23.85;11.50;;;;;;;10.66;100.00;101253.47;5218855;28;20025;-71
2022/06/22 03:25:05;;;;;;;22.85;11.65;;;;;;;10.68;100.00;101247.94;5209576;28;20056;-70
2022/06/22 03:27:41;;;;;;;22.58;11.25;;;;;;;10.68;100.00;101254.13;5221405;28;20028;-71
2022/06/22 03:30:16;;;;;;;19.75;11.05;;;;;;;10.65;100.00;101257.16;5219657;28;20036;-70
2022/06/22 03:33:07;;;;;;;26.77;11.35;;;;;;;10.62;100.00;101260.13;5218728;28;20030;-70
2022/06/22 03:35:45;;;;;;;41.33;16.05;;;;;;;10.56;100.00;101272.34;5216112;28;20032;-71
2022/06/22 03:38:20;;;;;;;24.85;13.13;;;;;;;10.49;100.00;101267.72;5211912;28;20075;-71
2022/06/22 03:40:57;;;;;;;23.10;12.73;;;;;;;10.42;100.00;101269.38;5213972;28;20029;-72
2022/06/22 03:43:33;;;;;;;21.13;12.10;;;;;;;10.36;100.00;101260.94;5221588;28;20043;-72
2022/06/22 03:46:40;;;;;;;17.33;10.18;;;;;;;10.34;100.00;101256.72;5206144;28;20029;-72
2022/06/22 03:49:21;;;;;;;21.98;12.73;;;;;;;10.31;100.00;101255.19;5205440;28;20398;-71
2022/06/22 03:52:26;;;;;;;24.92;12.57;;;;;;;10.29;100.00;101248.28;5214803;28;20424;-71
2022/06/22 03:55:03;;;;;;;29.23;12.48;;;;;;;10.28;100.00;101251.97;5204850;28;20033;-70
2022/06/22 03:57:38;;;;;;;20.50;8.30;;;;;;;10.16;100.00;101246.00;5204633;28;20013;-70
2022/06/22 04:00:12;;;;;;;20.35;10.55;;;;;;;10.08;100.00;101241.38;5204297;28;20416;-71
2022/06/22 04:02:44;;;;;;;22.48;11.77;;;;;;;10.01;100.00;101245.69;5204960;28;20057;-72
2022/06/22 04:05:20;;;;;;;20.95;12.25;;;;;;;9.98;100.00;101242.44;5204011;28;20025;-71
2022/06/22 04:07:53;;;;;;;26.05;14.38;;;;;;;9.95;100.00;101248.97;5225009;28;20394;-71
2022/06/22 04:10:47;;;;;;;23.33;13.70;;;;;;;9.94;100.00;101247.31;5222778;28;20150;-71
2022/06/22 04:13:25;;;;;;;23.13;12.23;;;;;;;9.92;100.00;101235.88;5214694;28;20029;-71
2022/06/22 04:16:02;;;;;;;20.20;10.60;;;;;;;9.90;100.00;101237.88;5219651;28;20048;-71
2022/06/22 04:18:40;;;;;;;19.65;11.48;;;;;;;9.90;100.00;101235.19;5211288;28;20026;-71
2022/06/22 04:21:13;;;;;;;23.83;13.02;;;;;;;9.89;100.00;101232.63;5221970;28;20033;-71
2022/06/22 04:23:49;;;;;;;23.98;12.57;;;;;;;9.88;100.00;101239.84;5218063;28;20037;-71
2022/06/22 04:26:43;;;;;;;28.25;12.43;;;;;;;9.86;100.00;101242.69;5221845;28;20121;-72
2022/06/22 04:29:42;;;;;;;21.20;11.35;;;;;;;9.85;100.00;101238.31;5206538;28;20029;-71
2022/06/22 04:32:33;;;;;;;26.50;13.18;;;;;;;9.86;100.00;101239.16;5219671;28;20556;-71
2022/06/22 04:35:20;;;;;;;20.73;10.38;;;;;;;9.84;100.00;101241.16;5207610;28;20040;-71
2022/06/22 04:37:55;;;;;;;25.92;12.52;;;;;;;9.84;100.00;101246.53;5220108;28;20035;-71
2022/06/22 04:41:03;;;;;;;27.48;13.98;;;;;;;9.89;100.00;101252.28;5214949;28;20300;-71
2022/06/22 04:43:36;;;;;;;24.92;12.63;;;;;;;9.99;100.00;101250.38;5219690;28;20039;-71
2022/06/22 04:46:12;;;;;;;24.65;13.88;;;;;;;10.13;100.00;101243.59;5211185;28;20079;-71
2022/06/22 04:48:47;;;;;;;29.55;13.40;;;;;;;10.24;100.00;101238.06;5219546;28;20032;-71
2022/06/22 04:51:22;;;;;;;32.33;13.68;;;;;;;10.42;100.00;101243.38;5220201;28;20047;-71
2022/06/22 04:53:53;;;;;;;;;;;;;;;10.70;100.00;101240.59;5206910;28;20490;-71
2022/06/22 04:56:47;;;;;;;35.53;17.73;;;;;;;10.94;100.00;101243.41;5217469;28;20363;-71
2022/06/22 04:59:18;;;;;;;36.15;18.70;;;;;;;11.23;100.00;101237.69;5220701;28;20502;-72
2022/06/22 05:01:54;;;;;;;37.20;18.00;;;;;;;11.47;100.00;101236.09;5214353;28;20029;-71
2022/06/22 05:04:29;;;;;;;36.50;18.60;;;;;;;11.67;100.00;101251.78;5207974;28;20054;-73
2022/06/22 05:07:02;;;;;;;37.60;19.70;;;;;;;11.86;100.00;101257.94;5205763;28;20033;-72
2022/06/22 05:09:40;;;;;;;39.72;20.33;;;;;;;12.06;100.00;101261.16;5208621;28;20047;-72
2022/06/22 05:12:17;;;;;;;45.90;18.33;;;;;;;12.26;100.00;101253.63;5221740;28;20475;-72
2022/06/22 05:14:49;;;;;;;34.25;18.08;;;;;;;12.43;100.00;101260.66;5216926;28;20029;-72
2022/06/22 05:17:26;;;;;;;34.65;17.17;;;;;;;12.57;100.00;101254.63;5203818;28;20017;-72
2022/06/22 05:20:30;;;;;;;33.90;17.40;;;;;;;12.70;100.00;101267.53;5215635;28;20032;-71
2022/06/22 05:23:02;;;;;;;33.45;17.33;;;;;;;12.83;100.00;101269.72;5203704;28;20491;-71
2022/06/22 05:25:32;;;;;;;31.13;16.13;;;;;;;12.96;100.00;101272.75;5203475;28;20408;-71
2022/06/22 05:28:33;;;;;;;32.70;16.95;;;;;;;13.12;100.00;101274.56;5203693;28;20026;-71
2022/06/22 05:31:08;;;;;;;36.55;18.40;;;;;;;13.28;100.00;101287.16;5204155;28;20040;-70
2022/06/22 05:33:46;;;;;;;29.33;18.48;;;;;;;13.42;100.00;101286.44;5203941;28;20017;-72
2022/06/22 05:36:22;;;;;;;29.75;17.30;;;;;;;13.60;100.00;101278.94;5203280;28;20033;-70
2022/06/22 05:38:57;;;;;;;33.22;16.08;;;;;;;13.78;100.00;101277.84;5220361;28;20025;-70
2022/06/22 05:41:30;;;;;;;41.40;17.40;;;;;;;13.95;100.00;101282.97;5204281;28;20067;-70
2022/06/22 05:44:06;;;;;;;34.03;16.77;;;;;;;14.15;100.00;101285.22;5203613;28;20437;-70
2022/06/22 05:46:39;;;;;;;37.00;17.25;;;;;;;14.35;100.00;101283.72;5209482;28;20024;-71
2022/06/22 05:49:16;;;;;;;34.80;16.52;;;;;;;14.56;100.00;101283.09;5218798;28;20028;-71
2022/06/22 05:52:06;;;;;;;30.95;16.25;;;;;;;14.76;100.00;101291.53;5214156;28;20047;-70
2022/06/22 05:54:57;;;;;;;24.55;14.80;;;;;;;14.99;100.00;101303.09;5213925;28;20025;-71
2022/06/22 05:57:52;;;;;;;28.27;13.55;;;;;;;15.31;100.00;101297.53;5215253;28;20052;-70
2022/06/22 06:00:27;;;;;;;25.67;14.18;;;;;;;15.66;100.00;101307.66;5216709;28;20029;-71
2022/06/22 06:03:33;;;;;;;26.10;14.32;;;;;;;16.23;100.00;101289.75;5220262;28;20039;-70
2022/06/22 06:06:14;;;;;;;25.17;12.18;;;;;;;17.09;100.00;101287.81;5212346;28;20564;-71
2022/06/22 06:08:53;;;;;;;21.85;12.05;;;;;;;17.84;100.00;101284.25;5216200;28;20518;-71
2022/06/22 06:11:29;;;;;;;17.15;11.35;;;;;;;18.37;100.00;101284.41;5217152;28;20056;-71
2022/06/22 06:14:05;;;;;;;21.35;11.70;;;;;;;18.62;100.00;101283.78;5213655;28;20036;-71
2022/06/22 06:16:45;;;;;;;20.10;11.18;;;;;;;18.93;100.00;101285.91;5216279;28;20022;-69
2022/06/22 06:19:20;;;;;;;31.92;12.45;;;;;;;18.98;100.00;101291.56;5207315;28;20352;-70
2022/06/22 06:21:54;;;;;;;17.75;11.30;;;;;;;19.32;100.00;101293.13;5213198;28;20374;-69
2022/06/22 06:24:29;;;;;;;17.88;11.02;;;;;;;19.49;100.00;101289.97;5212031;28;20018;-69
2022/06/22 06:30:01;;;;;;;20.65;10.35;;;;;;;19.55;100.00;101305.44;5201902;28;20116;-70
2022/06/22 06:33:09;;;;;;;15.20;10.52;;;;;;;19.46;100.00;101288.50;5203478;28;20484;-69
2022/06/22 06:36:16;;;;;;;15.45;9.88;;;;;;;19.55;100.00;101295.38;5211109;28;20029;-69
2022/06/22 06:39:02;;;;;;;20.10;10.20;;;;;;;19.61;100.00;101283.66;5203443;28;20025;-69
2022/06/22 06:41:41;;;;;;;21.48;10.60;;;;;;;19.89;100.00;101275.16;5218036;28;20032;-70
2022/06/22 06:44:17;;;;;;;21.33;9.60;;;;;;;20.17;100.00;101263.06;5212685;28;20032;-69
2022/06/22 06:46:53;;;;;;;18.50;10.23;;;;;;;20.62;100.00;101262.97;5212109;28;20406;-69
2022/06/22 06:49:46;;;;;;;18.05;9.05;;;;;;;20.92;100.00;101261.22;5202006;28;20405;-69
2022/06/22 06:52:39;;;;;;;17.67;9.63;;;;;;;20.80;100.00;101268.47;5218037;28;20021;-69
2022/06/22 06:55:43;;;;;;;23.27;10.27;;;;;;;21.01;100.00;101264.50;5217452;28;20134;-70
2022/06/22 06:58:23;;;;;;;14.90;9.55;;;;;;;21.21;100.00;101254.22;5217974;28;20040;-70
2022/06/22 07:00:53;;;;;;;24.27;9.13;;;;;;;21.06;100.00;101255.66;5214503;28;20029;-69
2022/06/22 07:03:28;;;;;;;15.63;8.95;;;;;;;20.92;100.00;101255.75;5216613;28;20033;-70
2022/06/22 07:06:02;;;;;;;17.75;8.63;;;;;;;21.09;100.00;101258.75;5213359;28;20470;-70
2022/06/22 07:08:37;;;;;;;16.75;9.23;;;;;;;21.14;100.00;101261.66;5213386;28;20037;-70
2022/06/22 07:11:31;;;;;;;14.02;7.88;;;;;;;21.81;100.00;101249.97;5215634;28;20421;-70
2022/06/22 07:14:18;;;;;;;17.02;8.25;;;;;;;21.92;100.00;101260.91;5211358;28;20108;-70
2022/06/22 07:16:51;;;;;;;11.45;7.75;;;;;;;22.18;100.00;101250.69;5220437;28;20036;-70
2022/06/22 07:19:27;;;;;;;15.20;8.07;;;;;;;22.35;100.00;101254.44;5208595;28;20495;-70
2022/06/22 07:22:31;;;;;;;15.25;7.88;;;;;;;22.36;100.00;101256.09;5203602;28;20026;-70
2022/06/22 07:25:07;;;;;;;11.35;7.00;;;;;;;22.43;100.00;101245.06;5221121;28;20402;-70
2022/06/22 07:28:01;;;;;;;15.20;7.80;;;;;;;22.25;100.00;101247.88;5220448;28;20025;-70
2022/06/22 07:30:37;;;;;;;18.45;7.85;;;;;;;21.84;100.00;101249.47;5211769;28;20053;-71
2022/06/22 07:33:45;;;;;;;17.58;8.18;;;;;;;21.54;100.00;101244.03;5220631;28;20626;-70
2022/06/22 07:36:25;;;;;;;15.63;8.23;;;;;;;21.40;100.00;101246.06;5205224;28;20522;-70
2022/06/22 07:39:14;;;;;;;16.58;7.53;;;;;;;21.73;100.00;101245.63;5202954;28;20021;-70
2022/06/22 07:41:45;;;;;;;16.38;7.53;;;;;;;21.70;100.00;101240.66;5213390;28;20043;-69
2022/06/22 07:44:20;;;;;;;11.77;7.78;;;;;;;21.52;100.00;101238.78;5221013;28;20029;-70
2022/06/22 07:47:08;;;;;;;;;;;;;;;21.66;100.00;101243.00;5222942;28;20497;-70
2022/06/22 07:49:58;;;;;;;17.52;7.93;;;;;;;22.38;100.00;101247.66;5214135;28;19970;-70
2022/06/22 07:52:37;;;;;;;16.25;7.28;;;;;;;23.16;100.00;101241.91;5207812;28;20197;-70
2022/06/22 07:55:31;;;;;;;18.20;7.80;;;;;;;23.93;100.00;101247.06;5205684;28;20128;-70
2022/06/22 07:58:26;;;;;;;15.52;7.63;;;;;;;24.54;97.57;101261.03;5205412;28;20014;-70
2022/06/22 08:01:02;;;;;;;21.60;7.80;;;;;;;24.83;91.96;101267.25;5206096;28;20286;-70
2022/06/22 08:03:39;;;;;;;14.90;7.65;;;;;;;25.27;86.31;101264.66;5208659;28;20025;-70
2022/06/22 08:06:15;;;;;;;11.35;6.63;;;;;;;25.42;84.10;101264.84;5206187;28;20442;-70
2022/06/22 08:08:54;;;;;;;11.90;6.63;;;;;;;25.72;83.92;101274.56;5203559;28;20034;-70
2022/06/22 08:11:46;;;;;;;13.38;7.45;;;;;;;25.64;76.25;101275.81;5204744;28;20732;-70
2022/06/22 08:14:25;;;;;;;9.70;6.82;;;;;;;25.88;79.01;101270.09;5204076;28;20039;-71
2022/06/22 08:16:58;;;;;;;10.48;6.47;;;;;;;25.82;76.46;101271.97;5211605;28;20055;-70
2022/06/22 08:19:31;;;;;;;11.88;6.82;;;;;;;25.93;76.42;101270.97;5209469;28;20021;-70
2022/06/22 08:22:05;;;;;;;10.77;6.53;;;;;;;25.92;74.61;101263.00;5203916;28;20029;-71
2022/06/22 08:24:41;;;;;;;16.15;7.63;;;;;;;25.86;74.18;101267.59;5212725;28;20064;-70
2022/06/22 08:27:18;;;;;;;10.77;6.18;;;;;;;25.77;74.32;101261.72;5208522;28;20095;-70
2022/06/22 08:29:50;;;;;;;10.18;6.13;;;;;;;26.38;75.27;101264.28;5214456;28;20025;-71
2022/06/22 08:32:36;;;;;;;11.98;6.45;;;;;;;27.00;73.52;101247.13;5208975;28;20013;-71
2022/06/22 08:35:16;;;;;;;10.43;5.47;;;;;;;27.29;72.99;101247.59;5206669;28;20545;-71
2022/06/22 08:37:56;;;;;;;13.02;6.55;;;;;;;27.56;68.33;101257.63;5214528;28;20036;-70
2022/06/22 08:40:43;;;;;;;11.23;5.30;;;;;;;27.43;66.12;101247.97;5207632;28;20037;-71
2022/06/22 08:43:40;;;;;;;8.95;5.72;;;;;;;27.07;60.53;101252.44;5214315;28;20494;-71
2022/06/22 08:46:47;;;;;;;14.38;4.70;;;;;;;26.89;62.48;101248.19;5215309;28;20491;-71
2022/06/22 08:49:27;;;;;;;8.32;4.22;;;;;;;26.89;62.19;101252.84;5209583;28;20514;-71
2022/06/22 08:52:14;;;;;;;8.98;4.68;;;;;;;26.74;62.72;101254.41;5209700;28;20042;-70
2022/06/22 08:54:55;;;;;;;11.43;5.13;;;;;;;26.91;63.66;101257.03;5209856;28;20483;-70
2022/06/22 08:57:38;;;;;;;13.15;4.82;;;;;;;27.36;64.58;101252.88;5201479;28;20064;-70
2022/06/22 09:00:33;;;;;;;15.50;4.50;;;;;;;27.61;59.64;101265.91;5208220;28;20013;-70
2022/06/22 09:03:34;;;;;;;11.00;4.40;;;;;;;27.39;58.04;101262.53;5215562;28;20048;-70
2022/06/22 09:06:39;;;;;;;11.57;4.35;;;;;;;27.57;60.80;101262.91;5208296;28;20029;-71
2022/06/22 09:09:18;;;;;;;10.45;4.10;;;;;;;27.72;60.59;101264.09;5213902;28;20074;-70
2022/06/22 09:11:49;;;;;;;9.50;3.60;;;;;;;27.45;57.23;101250.44;5209584;28;20109;-71
2022/06/22 09:15:02;;;;;;;6.93;3.50;;;;;;;27.22;56.62;101259.97;5198176;28;20107;-70
2022/06/22 09:18:09;;;;;;;11.18;4.20;;;;;;;27.24;57.97;101252.25;5206149;28;20100;-70
2022/06/22 09:20:54;;;;;;;10.52;3.70;;;;;;;27.47;56.51;101254.59;5214672;28;20079;-70
2022/06/22 09:23:43;;;;;;;15.73;3.50;;;;;;;27.80;57.47;101250.59;5212867;28;20056;-71
2022/06/22 09:26:33;;;;;;;9.55;3.60;;;;;;;28.01;56.18;101250.63;5217825;28;20108;-71
2022/06/22 09:29:30;;;;;;;15.63;4.10;;;;;;;27.85;55.15;101245.09;5217808;28;20056;-71
2022/06/22 09:32:15;;;;;;;11.48;3.97;;;;;;;28.27;55.51;101238.53;5214377;28;20521;-71
2022/06/22 09:35:05;;;;;;;9.60;3.63;;;;;;;28.40;55.67;101234.41;5217447;28;20053;-71
2022/06/22 09:38:03;;;;;;;14.60;3.58;;;;;;;28.99;52.21;101230.25;5210342;28;20025;-71
2022/06/22 09:41:11;;;;;;;15.02;3.92;;;;;;;28.72;54.13;101231.38;5217065;28;20079;-71
2022/06/22 09:44:01;;;;;;;8.65;3.80;;;;;;;28.55;53.31;101236.34;5223945;28;20024;-70
2022/06/22 09:46:56;;;;;;;11.05;3.78;;;;;;;28.59;53.65;101237.47;5212034;28;20096;-71
2022/06/22 09:49:46;;;;;;;;;;;;;;;28.65;54.47;101234.41;5211109;28;20121;-71
2022/06/22 09:52:52;;;;;;;10.75;4.57;;;;;;;28.81;52.48;101239.91;5203647;28;19921;-71
2022/06/22 09:58:44;;;;;;;10.27;4.40;;;;;;;27.88;54.34;101222.50;5201733;28;20068;-70
2022/06/22 10:01:42;;;;;;;9.00;4.30;;;;;;;27.84;55.30;101228.81;5212761;28;20032;-70
2022/06/22 10:04:37;;;;;;;6.97;3.88;;;;;;;28.03;53.48;101226.38;5205159;28;20453;-70
2022/06/22 10:07:08;;;;;;;12.70;4.35;;;;;;;27.83;55.53;101235.44;5222012;28;20867;-71
2022/06/22 10:09:53;;;;;;;12.55;4.03;;;;;;;27.73;55.12;101219.69;5216289;28;20025;-70
2022/06/22 10:12:43;;;;;;;9.60;3.60;;;;;;;27.87;55.12;101215.31;5212652;28;20037;-71
2022/06/22 10:15:30;;;;;;;12.20;3.88;;;;;;;27.82;57.62;101223.59;5223666;28;20175;-71
2022/06/22 10:18:30;;;;;;;10.70;3.92;;;;;;;27.75;56.28;101227.69;5216095;28;20108;-70
2022/06/22 10:21:12;;;;;;;8.68;3.42;;;;;;;27.96;56.53;101223.88;5220493;28;20059;-70
2022/06/22 10:23:58;;;;;;;8.73;3.67;;;;;;;28.54;56.07;101223.66;5211959;28;20052;-71
2022/06/22 10:26:51;;;;;;;9.20;3.58;;;;;;;28.35;53.63;101199.38;5219631;28;20025;-71
2022/06/22 10:29:50;;;;;;;10.05;3.88;;;;;;;27.83;52.08;101216.16;5219855;28;20115;-70
2022/06/22 10:32:54;;;;;;;8.70;3.63;;;;;;;28.09;54.58;101208.72;5207264;28;20060;-71
2022/06/22 10:35:54;;;;;;;8.32;3.75;;;;;;;28.37;53.86;101210.16;5208169;28;20116;-71
2022/06/22 10:38:44;;;;;;;11.18;2.92;;;;;;;28.16;50.27;101219.47;5212727;28;20082;-70
2022/06/22 10:47:55;;;;;;;12.07;2.95;;;;;;;28.13;50.35;101227.22;5213226;28;20037;-71
2022/06/22 10:50:28;;;;;;;13.57;2.90;;;;;;;28.12;52.17;101224.75;5212484;28;20051;-71
2022/06/22 10:53:36;;;;;;;9.65;4.03;;;;;;;28.27;54.99;101215.66;5215770;28;20466;-71
2022/06/22 10:56:48;;;;;;;11.27;3.92;;;;;;;28.52;53.75;101207.38;5211579;28;20108;-71
2022/06/22 10:59:38;;;;;;;11.50;3.70;;;;;;;28.75;53.45;101211.47;5203205;28;20025;-71
2022/06/22 11:02:41;;;;;;;9.43;3.47;;;;;;;28.56;51.99;101215.91;5203100;28;20688;-71
2022/06/22 11:05:47;;;;;;;8.98;3.17;;;;;;;28.54;51.80;101213.44;5206671;28;20495;-71
2022/06/22 11:08:35;;;;;;;;;;;;;;;28.46;50.46;101219.50;5203058;28;20116;-71
2022/06/22 11:11:24;;;;;;;10.73;2.72;;;;;;;28.29;48.34;101219.78;5207453;28;20424;-70
2022/06/22 11:14:13;;;;;;;9.52;2.97;;;;;;;28.21;50.02;101209.28;5202941;28;20563;-71
2022/06/22 11:17:16;;;;;;;9.63;3.25;;;;;;;28.46;51.75;101219.50;5203219;28;20431;-71
2022/06/22 11:20:17;;;;;;;9.45;2.72;;;;;;;28.07;47.25;101213.72;5205379;28;20033;-71
2022/06/22 11:22:54;;;;;;;10.50;2.65;;;;;;;28.24;49.24;101216.19;5208864;28;20052;-71
2022/06/22 11:32:03;;;;;;;8.88;2.40;;;;;;;28.47;45.12;101215.69;5205806;28;20395;-71
2022/06/22 11:34:34;;;;;;;14.35;2.47;;;;;;;28.53;45.36;101211.81;5210300;28;20696;-71
2022/06/22 11:37:21;;;;;;;10.38;3.00;;;;;;;28.19;45.57;101222.53;5210474;28;20024;-70
2022/06/22 11:40:17;;;;;;;10.52;2.53;;;;;;;27.62;45.88;101218.00;5205881;28;20553;-71
2022/06/22 11:43:06;;;;;;;7.20;2.25;;;;;;;27.49;46.54;101200.03;5216355;28;20029;-70
2022/06/22 11:45:50;;;;;;;8.02;2.70;;;;;;;27.46;48.80;101199.72;5208941;28;20402;-70
2022/06/22 11:48:54;;;;;;;5.63;2.25;;;;;;;27.96;50.30;101190.78;5212460;28;20067;-71
2022/06/22 11:51:51;;;;;;;5.85;2.10;;;;;;;27.73;44.75;101199.59;5206827;28;20495;-70
2022/06/22 11:54:41;;;;;;;5.93;1.85;;;;;;;27.50;44.05;101193.41;5205903;28;20108;-71
2022/06/22 11:57:11;;;;;;;10.57;2.00;;;;;;;27.25;45.41;101190.56;5212858;28;20026;-71
2022/06/22 12:00:05;;;;;;;10.35;2.30;;;;;;;27.59;46.32;101194.56;5217499;28;20073;-70
2022/06/22 12:03:07;;;;;;;7.22;2.50;;;;;;;27.84;45.67;101191.06;5213971;28;20032;-70
2022/06/22 12:06:15;;;;;;;10.98;1.83;;;;;;;28.17;47.38;101190.81;5211783;28;20034;-71
2022/06/22 12:09:12;;;;;;;5.30;1.52;;;;;;;28.42;46.11;101188.09;5215995;28;20040;-70
2022/06/22 12:12:19;;;;;;;6.80;2.05;;;;;;;28.51;44.82;101186.41;5214005;28;20079;-71
2022/06/22 12:15:04;;;;;;;11.52;2.15;;;;;;;28.44;45.82;101188.63;5214290;28;20121;-71
2022/06/22 12:17:50;;;;;;;;;;;;;;;28.47;43.86;101185.31;5211456;28;20022;-70
2022/06/22 12:20:27;;;;;;;8.95;2.35;;;;;;;28.44;44.71;101190.56;5217963;28;19913;-71
2022/06/22 12:23:20;;;;;;;5.25;1.85;;;;;;;28.44;45.14;101185.88;5208009;28;20494;-71
2022/06/22 12:25:57;;;;;;;8.57;2.15;;;;;;;28.47;43.35;101174.28;5215174;28;20191;-71
2022/06/22 12:28:36;;;;;;;6.50;1.63;;;;;;;28.89;44.34;101165.63;5214045;28;20029;-71
2022/06/22 12:31:12;;;;;;;9.38;2.75;;;;;;;28.59;42.91;101174.81;5212307;28;20083;-71
2022/06/22 12:33:50;;;;;;;8.52;2.05;;;;;;;28.66;42.88;101171.75;5217203;28;20391;-71
2022/06/22 12:36:44;;;;;;;3.60;1.55;;;;;;;29.06;43.13;101153.44;5216620;28;20040;-71
2022/06/22 12:39:33;;;;;;;3.92;1.90;;;;;;;28.51;42.81;101163.50;5217583;28;20027;-71
2022/06/22 12:42:19;;;;;;;6.68;1.90;;;;;;;28.61;45.16;101164.28;5218719;28;20115;-70
2022/06/22 12:45:06;;;;;;;5.38;1.80;;;;;;;28.81;44.89;101146.03;5214668;28;20025;-70
2022/06/22 12:47:55;;;;;;;8.00;1.50;;;;;;;28.99;44.54;101156.50;5213430;28;20037;-70
2022/06/22 12:50:45;;;;;;;12.18;2.22;;;;;;;29.06;45.82;101147.91;5208681;28;20507;-70
2022/06/22 12:53:52;;;;;;;5.75;1.95;;;;;;;29.27;44.62;101143.09;5217764;28;20115;-71
2022/06/22 12:56:47;;;;;;;8.90;1.80;;;;;;;29.20;42.89;101137.06;5216882;28;20025;-70